sensor_id;sensor_type;location;lat;lon;timestamp;pressure;altitude;pressure_sealevel;temperature;humidity
65905;BME280;56275;49.802;24.020;2022-09-27T00:00:10;96220.81;;;21.96;57.43
65905;BME280;56275;49.802;24.020;2022-09-27T00:02:58;96220.81;;;21.96;57.67
65905;BME280;56275;49.802;24.020;2022-09-27T00:05:43;96215.50;;;21.96;57.50
65905;BME280;56275;49.802;24.020;2022-09-27T00:08:28;96209.38;;;21.96;57.70
65905;BME280;56275;49.802;24.020;2022-09-27T00:11:35;96215.50;;;21.96;57.67
65905;BME280;56275;49.802;24.020;2022-09-27T00:14:21;96213.78;;;21.95;57.44
65905;BME280;56275;49.802;24.020;2022-09-27T00:17:06;96213.78;;;21.95;57.46
65905;BME280;56275;49.802;24.020;2022-09-27T00:19:51;96211.16;;;21.95;57.72
65905;BME280;56275;49.802;24.020;2022-09-27T00:22:36;96211.16;;;21.95;57.38
65905;BME280;56275;49.802;24.020;2022-09-27T00:25:22;96202.34;;;21.95;57.53
65905;BME280;56275;49.802;24.020;2022-09-27T00:28:07;96205.00;;;21.95;57.42
65905;BME280;56275;49.802;24.020;2022-09-27T00:30:52;96197.97;;;21.94;57.56
65905;BME280;56275;49.802;24.020;2022-09-27T00:33:38;96207.66;;;21.95;57.64
65905;BME280;56275;49.802;24.020;2022-09-27T00:36:24;96203.25;;;21.94;57.60
65905;BME280;56275;49.802;24.020;2022-09-27T00:39:12;96205.91;;;21.94;57.66
65905;BME280;56275;49.802;24.020;2022-09-27T00:41:57;96199.72;;;21.95;57.65
65905;BME280;56275;49.802;24.020;2022-09-27T00:47:45;96192.69;;;21.94;57.53
65905;BME280;56275;49.802;24.020;2022-09-27T00:50:36;96189.19;;;21.93;57.47
65905;BME280;56275;49.802;24.020;2022-09-27T00:53:41;96190.97;;;21.93;57.42
65905;BME280;56275;49.802;24.020;2022-09-27T00:56:31;96185.66;;;21.93;57.47
65905;BME280;56275;49.802;24.020;2022-09-27T00:59:27;96183.09;;;21.91;57.67
65905;BME280;56275;49.802;24.020;2022-09-27T01:02:14;96181.31;;;21.92;57.61
65905;BME280;56275;49.802;24.020;2022-09-27T01:05:00;96181.31;;;21.92;57.72
65905;BME280;56275;49.802;24.020;2022-09-27T01:07:46;96173.38;;;21.92;57.57
65905;BME280;56275;49.802;24.020;2022-09-27T01:10:39;96172.44;;;21.93;57.33
65905;BME280;56275;49.802;24.020;2022-09-27T01:25:58;96151.38;;;21.91;57.37
65905;BME280;56275;49.802;24.020;2022-09-27T01:31:53;96138.22;;;21.90;57.46
65905;BME280;56275;49.802;24.020;2022-09-27T01:38:17;96133.84;;;21.89;57.52
65905;BME280;56275;49.802;24.020;2022-09-27T01:41:26;96135.66;;;21.88;57.55
65905;BME280;56275;49.802;24.020;2022-09-27T01:47:44;96125.94;;;21.89;57.59
65905;BME280;56275;49.802;24.020;2022-09-27T01:54:09;96123.31;;;21.87;57.66
65905;BME280;56275;49.802;24.020;2022-09-27T01:57:19;96116.31;;;21.86;57.20
65905;BME280;56275;49.802;24.020;2022-09-27T02:00:08;96110.94;;;21.88;57.47
65905;BME280;56275;49.802;24.020;2022-09-27T02:03:12;96109.25;;;21.87;57.63
65905;BME280;56275;49.802;24.020;2022-09-27T02:06:35;96103.09;;;21.86;57.71
65905;BME280;56275;49.802;24.020;2022-09-27T02:09:49;96103.09;;;21.86;57.56
65905;BME280;56275;49.802;24.020;2022-09-27T02:13:04;96094.31;;;21.86;57.68
65905;BME280;56275;49.802;24.020;2022-09-27T02:19:37;96102.31;;;21.84;57.66
65905;BME280;56275;49.802;24.020;2022-09-27T02:22:41;96096.16;;;21.84;57.61
65905;BME280;56275;49.802;24.020;2022-09-27T02:25:46;96105.81;;;21.85;57.65
65905;BME280;56275;49.802;24.020;2022-09-27T02:28:39;96102.31;;;21.84;57.51
65905;BME280;56275;49.802;24.020;2022-09-27T02:31:34;96104.94;;;21.84;57.42
65905;BME280;56275;49.802;24.020;2022-09-27T02:34:27;96097.88;;;21.85;57.35
65905;BME280;56275;49.802;24.020;2022-09-27T02:37:13;96092.59;;;21.85;57.36
65905;BME280;56275;49.802;24.020;2022-09-27T02:39:59;96085.59;;;21.84;57.60
65905;BME280;56275;49.802;24.020;2022-09-27T02:42:44;96093.50;;;21.84;57.51
65905;BME280;56275;49.802;24.020;2022-09-27T02:46:22;96085.59;;;21.84;57.56
65905;BME280;56275;49.802;24.020;2022-09-27T02:52:20;96086.44;;;21.84;57.36
65905;BME280;56275;49.802;24.020;2022-09-27T02:59:17;96080.38;;;21.82;57.56
65905;BME280;56275;49.802;24.020;2022-09-27T03:06:09;96084.81;;;21.82;57.62
65905;BME280;56275;49.802;24.020;2022-09-27T03:08:55;96081.25;;;21.81;57.40
65905;BME280;56275;49.802;24.020;2022-09-27T03:11:40;96086.56;;;21.81;57.34
65905;BME280;56275;49.802;24.020;2022-09-27T03:14:26;96087.44;;;21.82;57.61
65905;BME280;56275;49.802;24.020;2022-09-27T03:17:23;96078.69;;;21.79;57.65
65905;BME280;56275;49.802;24.020;2022-09-27T03:20:30;96079.56;;;21.80;57.42
65905;BME280;56275;49.802;24.020;2022-09-27T03:23:26;96083.06;;;21.80;57.46
65905;BME280;56275;49.802;24.020;2022-09-27T03:26:12;96084.84;;;21.80;57.65
65905;BME280;56275;49.802;24.020;2022-09-27T03:28:57;96087.47;;;21.80;57.56
65905;BME280;56275;49.802;24.020;2022-09-27T03:31:42;96081.25;;;21.81;57.61
65905;BME280;56275;49.802;24.020;2022-09-27T03:34:57;96089.19;;;21.81;57.65
65905;BME280;56275;49.802;24.020;2022-09-27T03:37:42;96084.84;;;21.80;57.39
65905;BME280;56275;49.802;24.020;2022-09-27T03:40:35;96085.75;;;21.79;57.43
65905;BME280;56275;49.802;24.020;2022-09-27T03:43:20;96081.34;;;21.79;57.38
65905;BME280;56275;49.802;24.020;2022-09-27T03:46:06;96079.56;;;21.80;57.34
65905;BME280;56275;49.802;24.020;2022-09-27T03:48:51;96085.69;;;21.80;57.57
65905;BME280;56275;49.802;24.020;2022-09-27T03:51:43;96085.69;;;21.80;57.37
65905;BME280;56275;49.802;24.020;2022-09-27T03:54:28;96085.69;;;21.80;57.52
65905;BME280;56275;49.802;24.020;2022-09-27T03:57:13;96075.13;;;21.80;57.56
65905;BME280;56275;49.802;24.020;2022-09-27T03:59:59;96079.56;;;21.80;57.33
65905;BME280;56275;49.802;24.020;2022-09-27T04:03:01;96076.91;;;21.80;57.42
65905;BME280;56275;49.802;24.020;2022-09-27T04:06:13;96078.69;;;21.79;57.57
65905;BME280;56275;49.802;24.020;2022-09-27T04:09:08;96076.03;;;21.79;57.34
65905;BME280;56275;49.802;24.020;2022-09-27T04:12:22;96070.75;;;21.79;57.74
65905;BME280;56275;49.802;24.020;2022-09-27T04:15:07;96064.63;;;21.79;57.62
65905;BME280;56275;49.802;24.020;2022-09-27T04:18:22;96062.03;;;21.77;57.42
65905;BME280;56275;49.802;24.020;2022-09-27T04:21:35;96069.03;;;21.78;57.57
65905;BME280;56275;49.802;24.020;2022-09-27T04:24:21;96067.34;;;21.77;57.52
65905;BME280;56275;49.802;24.020;2022-09-27T04:27:16;96063.84;;;21.77;57.41
65905;BME280;56275;49.802;24.020;2022-09-27T04:30:03;96065.53;;;21.78;57.49
65905;BME280;56275;49.802;24.020;2022-09-27T04:33:14;96068.19;;;21.78;57.35
65905;BME280;56275;49.802;24.020;2022-09-27T04:36:44;96065.63;;;21.76;57.52
65905;BME280;56275;49.802;24.020;2022-09-27T04:39:39;96069.13;;;21.77;57.61
65905;BME280;56275;49.802;24.020;2022-09-27T04:42:30;96066.47;;;21.77;57.32
65905;BME280;56275;49.802;24.020;2022-09-27T04:45:23;96065.63;;;21.76;57.36
65905;BME280;56275;49.802;24.020;2022-09-27T04:48:09;96067.34;;;21.77;57.45
65905;BME280;56275;49.802;24.020;2022-09-27T04:50:58;96067.34;;;21.77;57.16
65905;BME280;56275;49.802;24.020;2022-09-27T04:53:52;96060.31;;;21.76;57.28
65905;BME280;56275;49.802;24.020;2022-09-27T04:56:45;96062.91;;;21.78;57.39
65905;BME280;56275;49.802;24.020;2022-09-27T04:59:30;96055.81;;;21.78;57.42
65905;BME280;56275;49.802;24.020;2022-09-27T05:02:22;96054.13;;;21.77;57.49
65905;BME280;56275;49.802;24.020;2022-09-27T05:05:25;96051.53;;;21.76;57.58
65905;BME280;56275;49.802;24.020;2022-09-27T05:08:10;96057.69;;;21.76;57.35
65905;BME280;56275;49.802;24.020;2022-09-27T05:11:20;96058.53;;;21.77;57.28
65905;BME280;56275;49.802;24.020;2022-09-27T05:14:25;96061.19;;;21.77;57.29
65905;BME280;56275;49.802;24.020;2022-09-27T05:17:39;96054.13;;;21.77;57.37
65905;BME280;56275;49.802;24.020;2022-09-27T05:20:49;96053.25;;;21.77;57.56
65905;BME280;56275;49.802;24.020;2022-09-27T05:23:49;96052.31;;;21.78;57.51
65905;BME280;56275;49.802;24.020;2022-09-27T05:26:34;96059.41;;;21.77;57.57
65905;BME280;56275;49.802;24.020;2022-09-27T05:29:19;96062.91;;;21.78;57.29
65905;BME280;56275;49.802;24.020;2022-09-27T05:32:19;96058.47;;;21.78;57.47
65905;BME280;56275;49.802;24.020;2022-09-27T05:35:16;96057.63;;;21.78;57.31
65905;BME280;56275;49.802;24.020;2022-09-27T05:38:11;96051.47;;;21.77;57.41
65905;BME280;56275;49.802;24.020;2022-09-27T05:41:04;96044.41;;;21.78;57.30
65905;BME280;56275;49.802;24.020;2022-09-27T05:43:50;96043.41;;;21.80;57.38
65905;BME280;56275;49.802;24.020;2022-09-27T05:46:37;96046.00;;;21.82;57.44
65905;BME280;56275;49.802;24.020;2022-09-27T05:49:29;96042.44;;;21.83;57.52
65905;BME280;56275;49.802;24.020;2022-09-27T05:52:15;96038.84;;;21.84;57.50
65905;BME280;56275;49.802;24.020;2022-09-27T05:55:07;96042.34;;;21.85;57.56
65905;BME280;56275;49.802;24.020;2022-09-27T05:58:01;96045.84;;;21.85;57.24
65905;BME280;56275;49.802;24.020;2022-09-27T06:00:56;96035.34;;;21.84;57.46
65905;BME280;56275;49.802;24.020;2022-09-27T06:04:09;96047.63;;;21.85;57.47
65905;BME280;56275;49.802;24.020;2022-09-27T06:07:00;96040.47;;;21.88;57.47
65905;BME280;56275;49.802;24.020;2022-09-27T06:09:51;96042.03;;;21.92;57.49
65905;BME280;56275;49.802;24.020;2022-09-27T06:12:37;96048.06;;;21.96;57.53
65905;BME280;56275;49.802;24.020;2022-09-27T06:15:34;96041.84;;;21.97;57.54
65905;BME280;56275;49.802;24.020;2022-09-27T06:18:27;96044.41;;;21.98;57.57
65905;BME280;56275;49.802;24.020;2022-09-27T06:21:19;96039.13;;;21.98;57.65
65905;BME280;56275;49.802;24.020;2022-09-27T06:24:17;96042.63;;;21.99;57.65
65905;BME280;56275;49.802;24.020;2022-09-27T06:27:09;96052.34;;;21.98;57.63
65905;BME280;56275;49.802;24.020;2022-09-27T06:30:11;96055.06;;;21.97;57.70
65905;BME280;56275;49.802;24.020;2022-09-27T06:33:17;96058.56;;;21.97;57.76
65905;BME280;56275;49.802;24.020;2022-09-27T06:36:15;96058.56;;;21.97;57.71
65905;BME280;56275;49.802;24.020;2022-09-27T06:39:07;96065.56;;;21.98;57.56
65905;BME280;56275;49.802;24.020;2022-09-27T06:42:15;96067.34;;;21.98;57.50
65905;BME280;56275;49.802;24.020;2022-09-27T06:45:37;96060.28;;;21.98;57.71
65905;BME280;56275;49.802;24.020;2022-09-27T06:48:47;96065.56;;;21.98;57.63
65905;BME280;56275;49.802;24.020;2022-09-27T06:51:41;96073.50;;;21.98;57.46
65905;BME280;56275;49.802;24.020;2022-09-27T06:54:32;96064.63;;;21.99;57.74
65905;BME280;56275;49.802;24.020;2022-09-27T06:57:23;96062.78;;;22.01;57.66
65905;BME280;56275;49.802;24.020;2022-09-27T07:00:34;96060.09;;;22.03;57.71
65905;BME280;56275;49.802;24.020;2022-09-27T07:03:49;96062.66;;;22.04;57.67
65905;BME280;56275;49.802;24.020;2022-09-27T07:07:00;96055.50;;;22.06;57.84
65905;BME280;56275;49.802;24.020;2022-09-27T07:09:56;96055.59;;;22.05;57.53
65905;BME280;56275;49.802;24.020;2022-09-27T07:12:51;96057.31;;;22.06;57.76
65905;BME280;56275;49.802;24.020;2022-09-27T07:15:43;96054.66;;;22.06;57.57
65905;BME280;56275;49.802;24.020;2022-09-27T07:18:39;96065.22;;;22.06;57.63
65905;BME280;56275;49.802;24.020;2022-09-27T07:21:30;96060.09;;;22.03;57.47
65905;BME280;56275;49.802;24.020;2022-09-27T07:24:23;96066.34;;;22.00;57.41
65905;BME280;56275;49.802;24.020;2022-09-27T07:27:15;96055.06;;;21.97;57.40
65905;BME280;56275;49.802;24.020;2022-09-27T07:30:09;96061.28;;;21.96;57.33
65905;BME280;56275;49.802;24.020;2022-09-27T07:33:03;96052.53;;;21.94;57.45
65905;BME280;56275;49.802;24.020;2022-09-27T07:35:54;96063.19;;;21.92;57.54
65905;BME280;56275;49.802;24.020;2022-09-27T07:38:47;96065.03;;;21.90;57.56
65905;BME280;56275;49.802;24.020;2022-09-27T07:41:43;96056.31;;;21.88;57.39
65905;BME280;56275;49.802;24.020;2022-09-27T07:44:36;96066.91;;;21.88;57.41
65905;BME280;56275;49.802;24.020;2022-09-27T07:47:46;96071.38;;;21.86;57.43
65905;BME280;56275;49.802;24.020;2022-09-27T07:51:02;96069.66;;;21.85;57.27
65905;BME280;56275;49.802;24.020;2022-09-27T07:54:16;96079.44;;;21.83;57.39
65905;BME280;56275;49.802;24.020;2022-09-27T07:57:20;96068.00;;;21.83;57.44
65905;BME280;56275;49.802;24.020;2022-09-27T08:00:17;96066.28;;;21.82;57.38
65905;BME280;56275;49.802;24.020;2022-09-27T08:03:13;96062.66;;;21.84;57.56
65905;BME280;56275;49.802;24.020;2022-09-27T08:06:06;96069.53;;;21.88;57.74
65905;BME280;56275;49.802;24.020;2022-09-27T08:08:58;96064.97;;;21.92;57.56
65905;BME280;56275;49.802;24.020;2022-09-27T08:11:51;96056.91;;;21.95;57.59
65905;BME280;56275;49.802;24.020;2022-09-27T08:14:43;96055.91;;;21.97;57.52
65905;BME280;56275;49.802;24.020;2022-09-27T08:17:36;96050.47;;;22.00;57.55
65905;BME280;56275;49.802;24.020;2022-09-27T08:20:41;96054.81;;;22.03;57.45
65905;BME280;56275;49.802;24.020;2022-09-27T08:23:50;96049.44;;;22.04;57.59
65905;BME280;56275;49.802;24.020;2022-09-27T08:26:46;96048.50;;;22.05;57.49
65905;BME280;56275;49.802;24.020;2022-09-27T08:29:47;96042.22;;;22.08;57.64
65905;BME280;56275;49.802;24.020;2022-09-27T08:32:39;96037.78;;;22.10;57.80
65905;BME280;56275;49.802;24.020;2022-09-27T08:35:32;96040.34;;;22.12;57.78
65905;BME280;56275;49.802;24.020;2022-09-27T08:38:24;96038.47;;;22.14;57.55
65905;BME280;56275;49.802;24.020;2022-09-27T08:41:35;96039.34;;;22.14;57.63
65905;BME280;56275;49.802;24.020;2022-09-27T08:50:37;96048.88;;;22.18;57.32
65905;BME280;56275;49.802;24.020;2022-09-27T08:53:46;96044.38;;;22.20;57.63
65905;BME280;56275;49.802;24.020;2022-09-27T08:56:41;96047.00;;;22.20;57.39
65905;BME280;56275;49.802;24.020;2022-09-27T08:59:58;96040.78;;;22.21;57.43
65905;BME280;56275;49.802;24.020;2022-09-27T09:02:50;96042.53;;;22.22;57.38
65905;BME280;56275;49.802;24.020;2022-09-27T09:05:42;96038.88;;;22.25;57.57
65905;BME280;56275;49.802;24.020;2022-09-27T09:15:45;96031.72;;;22.27;57.42
65905;BME280;56275;49.802;24.020;2022-09-27T09:34:47;96013.81;;;22.33;57.44
65905;BME280;56275;49.802;24.020;2022-09-27T09:38:01;96012.00;;;22.34;57.55
65905;BME280;56275;49.802;24.020;2022-09-27T09:41:14;96002.34;;;22.33;57.44
65905;BME280;56275;49.802;24.020;2022-09-27T09:50:25;96011.97;;;22.36;57.48
65905;BME280;56275;49.802;24.020;2022-09-27T10:00:16;95996.13;;;22.34;57.31
65905;BME280;56275;49.802;24.020;2022-09-27T10:03:10;96002.34;;;22.33;57.41
65905;BME280;56275;49.802;24.020;2022-09-27T10:06:02;96002.34;;;22.33;57.41
65905;BME280;56275;49.802;24.020;2022-09-27T10:08:54;96003.22;;;22.33;57.46
65905;BME280;56275;49.802;24.020;2022-09-27T10:11:56;95998.84;;;22.32;57.50
65905;BME280;56275;49.802;24.020;2022-09-27T10:14:56;96000.75;;;22.49;58.26
65905;BME280;56275;49.802;24.020;2022-09-27T10:17:53;96000.59;;;22.52;57.77
65905;BME280;56275;49.802;24.020;2022-09-27T10:20:54;96006.09;;;22.48;57.76
65905;BME280;56275;49.802;24.020;2022-09-27T10:27:26;95993.38;;;22.37;57.70
65905;BME280;56275;49.802;24.020;2022-09-27T10:33:19;95986.41;;;22.34;57.92
65905;BME280;56275;49.802;24.020;2022-09-27T10:36:27;95991.69;;;22.34;57.94
65905;BME280;56275;49.802;24.020;2022-09-27T10:39:21;95989.06;;;22.34;57.87
65905;BME280;56275;49.802;24.020;2022-09-27T10:42:41;95981.13;;;22.34;57.73
65905;BME280;56275;49.802;24.020;2022-09-27T10:45:35;95981.06;;;22.36;57.98
65905;BME280;56275;49.802;24.020;2022-09-27T10:48:41;95977.50;;;22.37;57.83
65905;BME280;56275;49.802;24.020;2022-09-27T10:51:34;95981.84;;;22.38;57.90
65905;BME280;56275;49.802;24.020;2022-09-27T10:54:31;95971.25;;;22.38;57.72
65905;BME280;56275;49.802;24.020;2022-09-27T10:57:27;95970.41;;;22.38;57.79
65905;BME280;56275;49.802;24.020;2022-09-27T11:00:28;95977.13;;;22.45;58.00
65905;BME280;56275;49.802;24.020;2022-09-27T11:03:22;95968.09;;;22.49;58.38
65905;BME280;56275;49.802;24.020;2022-09-27T11:09:21;95973.97;;;22.55;57.81
65905;BME280;56275;49.802;24.020;2022-09-27T11:12:18;95968.69;;;22.55;57.97
65905;BME280;56275;49.802;24.020;2022-09-27T11:15:17;95971.28;;;22.57;57.96
65905;BME280;56275;49.802;24.020;2022-09-27T11:18:38;95966.84;;;22.57;57.91
65905;BME280;56275;49.802;24.020;2022-09-27T11:35:01;95959.84;;;22.56;57.73
65905;BME280;56275;49.802;24.020;2022-09-27T11:54:44;95930.94;;;22.52;57.71
65905;BME280;56275;49.802;24.020;2022-09-27T12:09:39;95928.41;;;22.49;58.05
65905;BME280;56275;49.802;24.020;2022-09-27T12:12:35;95921.41;;;22.48;58.09
65905;BME280;56275;49.802;24.020;2022-09-27T12:15:33;95925.06;;;22.45;58.19
65905;BME280;56275;49.802;24.020;2022-09-27T12:18:29;95922.50;;;22.44;58.18
65905;BME280;56275;49.802;24.020;2022-09-27T12:21:23;95926.94;;;22.43;58.29
65905;BME280;56275;49.802;24.020;2022-09-27T12:24:21;95921.66;;;22.43;58.18
65905;BME280;56275;49.802;24.020;2022-09-27T12:30:44;95914.63;;;22.42;58.25
65905;BME280;56275;49.802;24.020;2022-09-27T12:33:52;95919.00;;;22.43;58.19
65905;BME280;56275;49.802;24.020;2022-09-27T12:37:09;95913.69;;;22.43;58.18
65905;BME280;56275;49.802;24.020;2022-09-27T12:40:16;95914.84;;;22.38;58.27
65905;BME280;56275;49.802;24.020;2022-09-27T12:43:21;95891.09;;;22.36;58.50
65905;BME280;56275;49.802;24.020;2022-09-27T12:52:33;95904.53;;;22.31;58.32
65905;BME280;56275;49.802;24.020;2022-09-27T12:58:42;95912.47;;;22.31;58.31
65905;BME280;56275;49.802;24.020;2022-09-27T13:05:24;95901.91;;;22.31;58.38
65905;BME280;56275;49.802;24.020;2022-09-27T13:15:11;95899.16;;;22.33;58.51
65905;BME280;56275;49.802;24.020;2022-09-27T13:18:51;95896.53;;;22.33;58.57
65905;BME280;56275;49.802;24.020;2022-09-27T13:25:00;95885.00;;;22.34;58.54
65905;BME280;56275;49.802;24.020;2022-09-27T13:34:53;95869.94;;;22.36;58.69
65905;BME280;56275;49.802;24.020;2022-09-27T13:41:13;95874.28;;;22.37;58.86
65905;BME280;56275;49.802;24.020;2022-09-27T13:47:38;95869.00;;;22.37;58.64
65905;BME280;56275;49.802;24.020;2022-09-27T13:50:51;95881.28;;;22.38;58.83
65905;BME280;56275;49.802;24.020;2022-09-27T13:54:05;95874.28;;;22.37;58.88
65905;BME280;56275;49.802;24.020;2022-09-27T13:57:42;95876.88;;;22.39;58.69
65905;BME280;56275;49.802;24.020;2022-09-27T14:00:48;95881.13;;;22.41;58.83
65905;BME280;56275;49.802;24.020;2022-09-27T14:07:11;95880.66;;;22.52;59.12
65905;BME280;56275;49.802;24.020;2022-09-27T14:10:06;95876.28;;;22.51;58.83
65905;BME280;56275;49.802;24.020;2022-09-27T14:13:04;95867.53;;;22.49;59.03
65905;BME280;56275;49.802;24.020;2022-09-27T14:16:03;95858.81;;;22.47;58.94
65905;BME280;56275;49.802;24.020;2022-09-27T14:18:57;95858.06;;;22.45;59.04
65905;BME280;56275;49.802;24.020;2022-09-27T14:22:02;95866.06;;;22.43;59.10
65905;BME280;56275;49.802;24.020;2022-09-27T14:24:57;95860.81;;;22.42;58.96
65905;BME280;56275;49.802;24.020;2022-09-27T14:27:54;95866.19;;;22.40;59.10
65905;BME280;56275;49.802;24.020;2022-09-27T14:31:16;95866.28;;;22.39;59.25
65905;BME280;56275;49.802;24.020;2022-09-27T14:34:22;95854.06;;;22.36;58.92
65905;BME280;56275;49.802;24.020;2022-09-27T14:37:19;95855.84;;;22.36;59.06
65905;BME280;56275;49.802;24.020;2022-09-27T14:40:21;95848.91;;;22.33;59.06
65905;BME280;56275;49.802;24.020;2022-09-27T14:43:16;95848.97;;;22.31;58.97
65905;BME280;56275;49.802;24.020;2022-09-27T14:46:25;95847.47;;;22.26;58.84
65905;BME280;56275;49.802;24.020;2022-09-27T14:49:24;95842.34;;;22.23;59.01
65905;BME280;56275;49.802;24.020;2022-09-27T14:52:21;95845.91;;;22.22;58.86
65905;BME280;56275;49.802;24.020;2022-09-27T14:55:20;95849.47;;;22.21;58.91
65905;BME280;56275;49.802;24.020;2022-09-27T14:58:13;95841.69;;;22.18;58.96
65905;BME280;56275;49.802;24.020;2022-09-27T15:01:05;95839.13;;;22.16;58.82
65905;BME280;56275;49.802;24.020;2022-09-27T15:04:04;95837.41;;;22.15;58.68
65905;BME280;56275;49.802;24.020;2022-09-27T15:06:56;95841.03;;;22.13;58.67
65905;BME280;56275;49.802;24.020;2022-09-27T15:09:48;95836.69;;;22.12;58.65
65905;BME280;56275;49.802;24.020;2022-09-27T15:12:41;95838.56;;;22.10;58.72
65905;BME280;56275;49.802;24.020;2022-09-27T15:15:37;95837.63;;;22.11;58.95
65905;BME280;56275;49.802;24.020;2022-09-27T15:21:33;95827.13;;;22.07;58.59
65905;BME280;56275;49.802;24.020;2022-09-27T15:24:47;95831.56;;;22.07;58.48
65905;BME280;56275;49.802;24.020;2022-09-27T15:27:38;95834.22;;;22.07;58.67
65905;BME280;56275;49.802;24.020;2022-09-27T15:30:40;95828.91;;;22.07;58.63
65905;BME280;56275;49.802;24.020;2022-09-27T15:33:33;95826.34;;;22.05;58.57
65905;BME280;56275;49.802;24.020;2022-09-27T15:36:49;95819.28;;;22.06;58.39
65905;BME280;56275;49.802;24.020;2022-09-27T15:39:41;95817.50;;;22.06;58.42
65905;BME280;56275;49.802;24.020;2022-09-27T15:42:53;95820.97;;;22.09;58.24
65905;BME280;56275;49.802;24.020;2022-09-27T15:45:50;95817.41;;;22.10;58.21
65905;BME280;56275;49.802;24.020;2022-09-27T15:48:42;95809.47;;;22.10;58.40
65905;BME280;56275;49.802;24.020;2022-09-27T15:51:39;95816.31;;;22.14;58.67
65905;BME280;56275;49.802;24.020;2022-09-27T15:54:31;95812.69;;;22.16;58.18
65905;BME280;56275;49.802;24.020;2022-09-27T15:57:25;95821.38;;;22.18;58.30
65905;BME280;56275;49.802;24.020;2022-09-27T16:00:19;95825.66;;;22.21;58.20
65905;BME280;56275;49.802;24.020;2022-09-27T16:03:11;95834.44;;;22.21;57.95
65905;BME280;56275;49.802;24.020;2022-09-27T16:06:04;95830.94;;;22.21;58.04
65905;BME280;56275;49.802;24.020;2022-09-27T16:08:55;95830.91;;;22.22;58.02
65905;BME280;56275;49.802;24.020;2022-09-27T16:11:48;95850.19;;;22.24;58.17
65905;BME280;56275;49.802;24.020;2022-09-27T16:14:40;95845.75;;;22.25;57.81
65905;BME280;56275;49.802;24.020;2022-09-27T16:17:32;95843.28;;;22.22;57.88
65905;BME280;56275;49.802;24.020;2022-09-27T16:20:26;95835.47;;;22.19;57.91
65905;BME280;56275;49.802;24.020;2022-09-27T16:23:17;95837.25;;;22.18;57.71
65905;BME280;56275;49.802;24.020;2022-09-27T16:26:09;95828.38;;;22.19;57.57
65905;BME280;56275;49.802;24.020;2022-09-27T16:29:00;95839.81;;;22.20;57.70
65905;BME280;56275;49.802;24.020;2022-09-27T16:31:51;95840.69;;;22.20;57.55
65905;BME280;56275;49.802;24.020;2022-09-27T16:34:44;95848.69;;;22.19;57.63
65905;BME280;56275;49.802;24.020;2022-09-27T16:37:35;95846.97;;;22.18;57.36
65905;BME280;56275;49.802;24.020;2022-09-27T16:40:27;95843.56;;;22.16;57.41
65905;BME280;56275;49.802;24.020;2022-09-27T16:43:18;95840.97;;;22.14;57.37
65905;BME280;56275;49.802;24.020;2022-09-27T16:46:10;95836.59;;;22.13;57.15
65905;BME280;56275;49.802;24.020;2022-09-27T16:49:04;95831.41;;;22.12;57.33
65905;BME280;56275;49.802;24.020;2022-09-27T16:52:15;95836.75;;;22.10;57.42
65905;BME280;56275;49.802;24.020;2022-09-27T16:55:08;95845.56;;;22.11;57.06
65905;BME280;56275;49.802;24.020;2022-09-27T16:57:59;95848.28;;;22.09;57.07
65905;BME280;56275;49.802;24.020;2022-09-27T17:00:50;95858.88;;;22.07;57.03
65905;BME280;56275;49.802;24.020;2022-09-27T17:03:47;95870.38;;;22.06;56.88
65905;BME280;56275;49.802;24.020;2022-09-27T17:06:39;95869.59;;;22.04;57.12
65905;BME280;56275;49.802;24.020;2022-09-27T17:09:30;95862.59;;;22.03;57.13
65905;BME280;56275;49.802;24.020;2022-09-27T17:12:21;95864.41;;;22.03;56.83
65905;BME280;56275;49.802;24.020;2022-09-27T17:15:14;95847.72;;;22.01;56.85
65905;BME280;56275;49.802;24.020;2022-09-27T17:18:06;95848.56;;;22.01;56.90
65905;BME280;56275;49.802;24.020;2022-09-27T17:21:01;95854.78;;;22.00;56.85
65905;BME280;56275;49.802;24.020;2022-09-27T17:23:53;95852.22;;;21.99;56.70
65905;BME280;56275;49.802;24.020;2022-09-27T17:26:44;95858.38;;;21.99;56.64
65905;BME280;56275;49.802;24.020;2022-09-27T17:29:36;95855.81;;;21.98;56.68
65905;BME280;56275;49.802;24.020;2022-09-27T17:32:29;95852.97;;;22.02;56.72
65905;BME280;56275;49.802;24.020;2022-09-27T17:35:20;95856.38;;;22.04;56.92
65905;BME280;56275;49.802;24.020;2022-09-27T17:38:11;95851.09;;;22.04;56.69
65905;BME280;56275;49.802;24.020;2022-09-27T17:41:05;95855.44;;;22.05;56.66
65905;BME280;56275;49.802;24.020;2022-09-27T17:43:59;95859.72;;;22.08;56.62
65905;BME280;56275;49.802;24.020;2022-09-27T17:46:51;95845.41;;;22.14;56.58
65905;BME280;56275;49.802;24.020;2022-09-27T17:50:02;95855.00;;;22.16;56.51
65905;BME280;56275;49.802;24.020;2022-09-27T17:53:12;95853.22;;;22.17;56.74
65905;BME280;56275;49.802;24.020;2022-09-27T17:56:03;95853.91;;;22.20;56.42
65905;BME280;56275;49.802;24.020;2022-09-27T17:58:55;95852.91;;;22.23;56.31
65905;BME280;56275;49.802;24.020;2022-09-27T18:01:47;95852.69;;;22.27;56.72
65905;BME280;56275;49.802;24.020;2022-09-27T18:04:38;95850.84;;;22.29;56.47
65905;BME280;56275;49.802;24.020;2022-09-27T18:07:30;95848.13;;;22.31;56.48
65905;BME280;56275;49.802;24.020;2022-09-27T18:10:22;95849.75;;;22.33;56.57
65905;BME280;56275;49.802;24.020;2022-09-27T18:13:14;95849.75;;;22.33;56.55
65905;BME280;56275;49.802;24.020;2022-09-27T18:16:11;95848.81;;;22.34;56.29
65905;BME280;56275;49.802;24.020;2022-09-27T18:19:05;95853.22;;;22.36;56.27
65905;BME280;56275;49.802;24.020;2022-09-27T18:21:56;95846.13;;;22.36;56.15
65905;BME280;56275;49.802;24.020;2022-09-27T18:24:48;95852.28;;;22.37;56.39
65905;BME280;56275;49.802;24.020;2022-09-27T18:27:40;95848.78;;;22.36;56.39